Time,TemperatureF,DewpointF,PressureIn,WindDirection,WindDirectionDegrees,WindSpeedMPH,WindSpeedGustMPH,Humidity,HourlyPrecipIn,Conditions,Clouds,dailyrainin,SolarRadiationWatts/m^2,SoftwareType,DateUTC
2013-07-04 00:01:00,47.0,41.0,-100.00,NNE,26,2.0,4.0,79,0.00,,,0.00,0.000000,,2013-07-04 06:01:00,
2013-07-04 00:11:00,47.0,41.0,-100.00,NNE,26,2.0,4.0,79,0.00,,,0.00,0.000000,,2013-07-04 06:11:00,
2013-07-04 00:22:00,47.0,41.0,-100.00,NNE,26,2.0,4.0,79,0.00,,,0.00,0.000000,,2013-07-04 06:22:00,
2013-07-04 00:34:00,47.0,41.0,-100.00,NNE,26,2.0,4.0,79,0.00,,,0.00,0.000000,,2013-07-04 06:34:00,
2013-07-04 01:02:00,46.0,41.0,-100.00,NE,40,1.0,3.0,82,0.00,,,0.00,0.000000,,2013-07-04 07:02:00,
2013-07-04 01:12:00,46.0,41.0,-100.00,NE,40,1.0,3.0,82,0.00,,,0.00,0.000000,,2013-07-04 07:12:00,
2013-07-04 01:22:00,46.0,41.0,-100.00,NE,40,1.0,3.0,82,0.00,,,0.00,0.000000,,2013-07-04 07:22:00,
2013-07-04 01:34:00,46.0,41.0,-100.00,NE,40,1.0,3.0,82,0.00,,,0.00,0.000000,,2013-07-04 07:34:00,
2013-07-04 02:02:00,45.0,40.0,-100.00,NNE,12,1.0,3.0,84,0.00,,,0.00,0.000000,,2013-07-04 08:02:00,
2013-07-04 02:11:00,45.0,40.0,-100.00,NNE,12,1.0,3.0,84,0.00,,,0.00,0.000000,,2013-07-04 08:11:00,
2013-07-04 02:22:00,45.0,40.0,-100.00,NNE,12,1.0,3.0,84,0.00,,,0.00,0.000000,,2013-07-04 08:22:00,
2013-07-04 02:33:00,45.0,40.0,-100.00,NNE,12,1.0,3.0,84,0.00,,,0.00,0.000000,,2013-07-04 08:33:00,
2013-07-04 03:22:00,44.0,39.0,-100.00,NNE,18,1.0,3.0,84,0.00,,,0.00,0.000000,,2013-07-04 09:22:00,
2013-07-04 03:32:00,44.0,39.0,-100.00,NNE,18,1.0,3.0,84,0.00,,,0.00,0.000000,,2013-07-04 09:32:00,
2013-07-04 04:01:00,44.0,39.0,-100.00,NE,35,1.0,3.0,84,0.00,,,0.00,0.000000,,2013-07-04 10:01:00,
2013-07-04 04:33:00,44.0,39.0,-100.00,NE,35,1.0,3.0,84,0.00,,,0.00,0.000000,,2013-07-04 10:33:00,
2013-07-04 05:02:00,44.0,39.0,-100.00,NNE,19,2.0,3.0,83,0.00,,,0.00,0.000000,,2013-07-04 11:02:00,
2013-07-04 05:33:00,44.0,39.0,-100.00,NNE,19,2.0,3.0,83,0.00,,,0.00,0.000000,,2013-07-04 11:33:00,
2013-07-04 06:02:00,45.0,40.0,-100.00,NNE,20,2.0,3.0,83,0.00,,,0.00,3.000000,,2013-07-04 12:02:00,
2013-07-04 06:33:00,45.0,40.0,-100.00,NNE,20,2.0,3.0,83,0.00,,,0.00,3.000000,,2013-07-04 12:33:00,
2013-07-04 07:02:00,48.0,43.0,-100.00,NNE,18,2.0,4.0,83,0.00,,,0.00,24.000000,,2013-07-04 13:02:00,
2013-07-04 07:12:00,48.0,43.0,-100.00,NNE,18,2.0,4.0,83,0.00,,,0.00,24.000000,,2013-07-04 13:12:00,
2013-07-04 07:23:00,48.0,43.0,-100.00,NNE,18,2.0,4.0,83,0.00,,,0.00,24.000000,,2013-07-04 13:23:00,
2013-07-04 07:33:00,48.0,43.0,-100.00,NNE,18,2.0,4.0,83,0.00,,,0.00,24.000000,,2013-07-04 13:33:00,
2013-07-04 08:02:00,57.0,51.0,-100.00,East,95,0.0,2.0,79,0.00,,,0.00,42.000000,,2013-07-04 14:02:00,
2013-07-04 08:11:00,57.0,51.0,-100.00,East,95,0.0,2.0,79,0.00,,,0.00,42.000000,,2013-07-04 14:11:00,
2013-07-04 08:22:00,57.0,51.0,-100.00,East,95,0.0,2.0,79,0.00,,,0.00,42.000000,,2013-07-04 14:22:00,
2013-07-04 08:33:00,57.0,51.0,-100.00,East,95,0.0,2.0,79,0.00,,,0.00,42.000000,,2013-07-04 14:33:00,
2013-07-04 09:02:00,70.0,50.0,-100.00,NW,314,3.0,8.0,49,0.00,,,0.00,89.000000,,2013-07-04 15:02:00,
2013-07-04 09:11:00,70.0,50.0,-100.00,NW,314,3.0,8.0,49,0.00,,,0.00,89.000000,,2013-07-04 15:11:00,
2013-07-04 09:23:00,70.0,50.0,-100.00,NW,314,3.0,8.0,49,0.00,,,0.00,89.000000,,2013-07-04 15:23:00,
2013-07-04 09:33:00,70.0,50.0,-100.00,NW,314,3.0,8.0,49,0.00,,,0.00,89.000000,,2013-07-04 15:33:00,
2013-07-04 10:02:00,65.0,50.0,-100.00,North,5,2.0,8.0,59,0.00,,,0.00,112.000000,,2013-07-04 16:02:00,
2013-07-04 10:11:00,65.0,50.0,-100.00,North,5,2.0,8.0,59,0.00,,,0.00,112.000000,,2013-07-04 16:11:00,
2013-07-04 10:22:00,65.0,50.0,-100.00,North,5,2.0,8.0,59,0.00,,,0.00,112.000000,,2013-07-04 16:22:00,
2013-07-04 10:33:00,65.0,50.0,-100.00,North,5,2.0,8.0,59,0.00,,,0.00,112.000000,,2013-07-04 16:33:00,
2013-07-04 11:01:00,54.0,51.0,-100.00,North,1,2.0,17.0,89,0.04,,,0.04,12.000000,,2013-07-04 17:01:00,
2013-07-04 11:12:00,54.0,51.0,-100.00,North,1,2.0,17.0,89,0.04,,,0.04,12.000000,,2013-07-04 17:12:00,
2013-07-04 11:22:00,54.0,51.0,-100.00,North,1,2.0,17.0,89,0.04,,,0.04,12.000000,,2013-07-04 17:22:00,
2013-07-04 11:33:00,54.0,51.0,-100.00,North,1,2.0,17.0,89,0.04,,,0.04,12.000000,,2013-07-04 17:33:00,
2013-07-04 12:01:00,64.0,54.0,-100.00,NNE,27,3.0,8.0,70,0.00,,,0.04,318.000000,,2013-07-04 18:01:00,
2013-07-04 12:11:00,64.0,54.0,-100.00,NNE,27,3.0,8.0,70,0.00,,,0.04,318.000000,,2013-07-04 18:11:00,
2013-07-04 12:22:00,64.0,54.0,-100.00,NNE,27,3.0,8.0,70,0.00,,,0.04,318.000000,,2013-07-04 18:22:00,
2013-07-04 12:33:00,64.0,54.0,-100.00,NNE,27,3.0,8.0,70,0.00,,,0.04,318.000000,,2013-07-04 18:33:00,
2013-07-04 13:01:00,68.0,49.0,-100.00,North,352,3.0,8.0,51,0.00,,,0.04,499.000000,,2013-07-04 19:01:00,
2013-07-04 13:12:00,68.0,49.0,-100.00,North,352,3.0,8.0,51,0.00,,,0.04,499.000000,,2013-07-04 19:12:00,
2013-07-04 13:22:00,68.0,49.0,-100.00,North,352,3.0,8.0,51,0.00,,,0.04,499.000000,,2013-07-04 19:22:00,
2013-07-04 13:33:00,68.0,49.0,-100.00,North,352,3.0,8.0,51,0.00,,,0.04,499.000000,,2013-07-04 19:33:00,
2013-07-04 14:01:00,67.0,50.0,-100.00,North,354,4.0,12.0,55,0.00,,,0.04,587.000000,,2013-07-04 20:01:00,
2013-07-04 14:11:00,67.0,50.0,-100.00,North,354,4.0,12.0,55,0.00,,,0.04,587.000000,,2013-07-04 20:11:00,
2013-07-04 14:22:00,67.0,50.0,-100.00,North,354,4.0,12.0,55,0.00,,,0.04,587.000000,,2013-07-04 20:22:00,
2013-07-04 14:33:00,67.0,50.0,-100.00,North,354,4.0,12.0,55,0.00,,,0.04,587.000000,,2013-07-04 20:33:00,
2013-07-04 15:01:00,72.0,51.0,-100.00,North,353,2.0,7.0,47,0.00,,,0.04,719.000000,,2013-07-04 21:01:00,
2013-07-04 15:11:00,72.0,51.0,-100.00,North,353,2.0,7.0,47,0.00,,,0.04,719.000000,,2013-07-04 21:11:00,
2013-07-04 15:22:00,72.0,51.0,-100.00,North,353,2.0,7.0,47,0.00,,,0.04,719.000000,,2013-07-04 21:22:00,
2013-07-04 15:32:00,72.0,51.0,-100.00,North,353,2.0,7.0,47,0.00,,,0.04,719.000000,,2013-07-04 21:32:00,
2013-07-04 16:02:00,73.0,51.0,-100.00,NW,317,3.0,6.0,46,0.00,,,0.04,594.000000,,2013-07-04 22:02:00,
2013-07-04 16:12:00,73.0,51.0,-100.00,NW,317,3.0,6.0,46,0.00,,,0.04,594.000000,,2013-07-04 22:12:00,
2013-07-04 16:22:00,73.0,51.0,-100.00,NW,317,3.0,6.0,46,0.00,,,0.04,594.000000,,2013-07-04 22:22:00,
2013-07-04 16:33:00,73.0,51.0,-100.00,NW,317,3.0,6.0,46,0.00,,,0.04,594.000000,,2013-07-04 22:33:00,
2013-07-04 17:01:00,76.0,51.0,-100.00,WSW,242,3.0,11.0,41,0.00,,,-99.99,302.000000,,2013-07-04 23:01:00,
2013-07-04 17:12:00,76.0,51.0,-100.00,WSW,242,3.0,11.0,41,0.00,,,-99.99,302.000000,,2013-07-04 23:12:00,
2013-07-04 17:23:00,76.0,51.0,-100.00,WSW,242,3.0,11.0,41,0.00,,,-99.99,302.000000,,2013-07-04 23:23:00,
2013-07-04 17:33:00,76.0,51.0,-100.00,WSW,242,3.0,11.0,41,0.00,,,-99.99,302.000000,,2013-07-04 23:33:00,
2013-07-04 18:01:00,72.0,52.0,-100.00,ENE,59,1.0,9.0,50,0.00,,,0.04,325.000000,,2013-07-05 00:01:00,
2013-07-04 18:11:00,72.0,52.0,-100.00,ENE,59,1.0,9.0,50,0.00,,,0.04,325.000000,,2013-07-05 00:11:00,
2013-07-04 18:22:00,72.0,52.0,-100.00,ENE,59,1.0,9.0,50,0.00,,,0.04,325.000000,,2013-07-05 00:22:00,
2013-07-04 18:32:00,72.0,52.0,-100.00,ENE,59,1.0,9.0,50,0.00,,,0.04,325.000000,,2013-07-05 00:32:00,
2013-07-04 19:01:00,65.0,52.0,-100.00,SE,141,5.0,10.0,63,0.00,,,0.04,87.000000,,2013-07-05 01:01:00,
2013-07-04 19:11:00,65.0,52.0,-100.00,SE,141,5.0,10.0,63,0.00,,,0.04,87.000000,,2013-07-05 01:11:00,
2013-07-04 19:22:00,65.0,52.0,-100.00,SE,141,5.0,10.0,63,0.00,,,0.04,87.000000,,2013-07-05 01:22:00,
2013-07-04 19:32:00,65.0,52.0,-100.00,SE,141,5.0,10.0,63,0.00,,,0.04,87.000000,,2013-07-05 01:32:00,
2013-07-04 20:02:00,62.0,52.0,-100.00,SE,128,4.0,9.0,70,0.00,,,0.04,40.000000,,2013-07-05 02:02:00,
2013-07-04 20:11:00,62.0,52.0,-100.00,SE,128,4.0,9.0,70,0.00,,,0.04,40.000000,,2013-07-05 02:11:00,
2013-07-04 20:21:00,62.0,52.0,-100.00,SE,128,4.0,9.0,70,0.00,,,0.04,40.000000,,2013-07-05 02:21:00,
2013-07-04 20:32:00,62.0,52.0,-100.00,SE,128,4.0,9.0,70,0.00,,,0.04,40.000000,,2013-07-05 02:32:00,
2013-07-04 21:02:00,62.0,52.0,-100.00,ESE,103,3.0,6.0,69,0.00,,,0.04,23.000000,,2013-07-05 03:02:00,
2013-07-04 21:11:00,62.0,52.0,-100.00,ESE,103,3.0,6.0,69,0.00,,,0.04,23.000000,,2013-07-05 03:11:00,
2013-07-04 21:22:00,62.0,52.0,-100.00,ESE,103,3.0,6.0,69,0.00,,,0.04,23.000000,,2013-07-05 03:22:00,
2013-07-04 21:32:00,62.0,52.0,-100.00,ESE,103,3.0,6.0,69,0.00,,,0.04,23.000000,,2013-07-05 03:32:00,
2013-07-04 22:01:00,60.0,51.0,-100.00,NNW,342,0.0,5.0,73,0.00,,,0.04,1.000000,,2013-07-05 04:01:00,
2013-07-04 22:11:00,60.0,51.0,-100.00,NNW,342,0.0,5.0,73,0.00,,,0.04,1.000000,,2013-07-05 04:11:00,
2013-07-04 22:22:00,60.0,51.0,-100.00,NNW,342,0.0,5.0,73,0.00,,,0.04,1.000000,,2013-07-05 04:22:00,
2013-07-04 22:33:00,60.0,51.0,-100.00,NNW,342,0.0,5.0,73,0.00,,,0.04,1.000000,,2013-07-05 04:33:00,
2013-07-04 23:01:00,55.0,51.0,-100.00,North,8,1.0,4.0,85,0.00,,,0.04,0.000000,,2013-07-05 05:01:00,
2013-07-04 23:12:00,55.0,51.0,-100.00,North,8,1.0,4.0,85,0.00,,,0.04,0.000000,,2013-07-05 05:12:00,
2013-07-04 23:22:00,55.0,51.0,-100.00,North,8,1.0,4.0,85,0.00,,,0.04,0.000000,,2013-07-05 05:22:00,
2013-07-04 23:33:00,55.0,51.0,-100.00,North,8,1.0,4.0,85,0.00,,,0.04,0.000000,,2013-07-05 05:33:00,